Overview Statistics Trail Chart Weather Telemetry Raw packets
 

This is the latest recevied weather packets stored in our database for station/object KO4YAW. If no packets are shown the sender has not sent any weather packets the latest 10 day(s).

<< 25 26 27 28 29 30 31 >>
Time Temp. Humidity Pressure Rain* Wind** Luminosity Snow
1788075187 18.33° C 61% 1018.5 hPa 0 mm - 0 W/m² -
1788074287 18.33° C 61% 1018.8 hPa 0 mm - 0 W/m² -
1788073387 18.33° C 61% 1019 hPa 0 mm - 0 W/m² -
1788072487 18.33° C 60% 1019.2 hPa 0 mm - 0 W/m² -
1788071587 18.33° C 59% 1019.3 hPa 0 mm - 0 W/m² -
1788070687 18.33° C 59% 1019.7 hPa 0 mm - 0 W/m² -
1788069787 18.33° C 60% 1019.7 hPa 0 mm - 0 W/m² -
1788068887 18.33° C 59% 1019.8 hPa 0 mm - 0 W/m² -
1788067987 17.78° C 59% 1020.1 hPa 0 mm - 0 W/m² -
1788067087 17.78° C 58% 1019.9 hPa 0 mm - 0 W/m² -
1788066187 17.78° C 58% 1020.1 hPa 0 mm - 0 W/m² -
1788065287 18.33° C 57% 1020.3 hPa 0 mm - 0 W/m² -
1788064387 17.78° C 58% 1020.9 hPa 0 mm - 0 W/m² -
1788063487 18.33° C 58% 1020.9 hPa 0 mm - 0 W/m² -
1788062587 18.33° C 57% 1021 hPa 0 mm - 0 W/m² -
1788061687 18.89° C 57% 1020.5 hPa 0 mm - 0 W/m² -
1788060787 18.89° C 56% 1020.1 hPa 0 mm - 0 W/m² -
1788059887 19.44° C 56% 1020.2 hPa 0 mm - 0 W/m² -
1788058987 20° C 55% 1020.3 hPa 0 mm - 0 W/m² -
1788058086 20.56° C 53% 1020.6 hPa 0 mm - 0 W/m² -
1788057186 22.22° C 51% 1020.5 hPa 0 mm - 0 W/m² -
1788056285 24.44° C 42% 1019.1 hPa 0 mm - 0 W/m² -
1788055385 24.44° C 42% 1018.5 hPa 0 mm - 0 W/m² -
1788054485 24.44° C 44% 1018.4 hPa 0 mm - 0 W/m² -
1788053585 24.44° C 44% 1018.3 hPa 0 mm - 2 W/m² -

* Rain since midnight (hover to see other rain measurements)
** Current wind speed in m/s (hover to see current wind gust speed)